createdAt,value
2017-10-20T00:01:27.932Z,8.82
2017-10-20T00:03:54.216Z,5.75
2017-10-20T00:06:20.553Z,4.03
2017-10-20T00:08:46.875Z,5.20
2017-10-20T00:11:13.214Z,7.00
2017-10-20T00:13:39.557Z,4.40
2017-10-20T00:16:05.860Z,5.75
2017-10-20T00:18:32.205Z,4.45
2017-10-20T00:20:58.522Z,4.90
2017-10-20T00:23:24.870Z,5.43
2017-10-20T00:25:51.199Z,5.60
2017-10-20T00:28:17.651Z,5.00
2017-10-20T00:30:43.977Z,6.35
2017-10-20T00:33:10.304Z,6.47
2017-10-20T00:35:36.642Z,5.85
2017-10-20T00:38:02.903Z,6.07
2017-10-20T00:40:29.190Z,6.00
2017-10-20T00:42:55.528Z,5.50
2017-10-20T00:45:21.857Z,6.50
2017-10-20T00:47:48.201Z,5.18
2017-10-20T00:50:14.518Z,4.62
2017-10-20T00:52:40.862Z,5.20
2017-10-20T00:55:07.295Z,5.10
2017-10-20T00:57:33.623Z,5.07
2017-10-20T00:59:59.934Z,4.07
2017-10-20T01:02:26.274Z,4.20
2017-10-20T01:04:52.638Z,6.37
2017-10-20T01:07:18.954Z,6.37
2017-10-20T01:09:45.278Z,7.20
2017-10-20T01:12:11.668Z,5.03
2017-10-20T01:14:37.945Z,4.68
2017-10-20T01:17:04.288Z,4.68
2017-10-20T01:19:30.609Z,4.37
2017-10-20T01:21:56.923Z,3.30
2017-10-20T01:24:23.163Z,4.70
2017-10-20T01:26:49.516Z,3.28
2017-10-20T01:29:15.836Z,3.20
2017-10-20T01:31:42.194Z,4.07
2017-10-20T01:34:08.491Z,5.12
2017-10-20T01:36:34.837Z,4.03
2017-10-20T01:39:01.184Z,4.72
2017-10-20T01:41:27.476Z,3.70
2017-10-20T01:43:53.835Z,4.12
2017-10-20T01:46:20.149Z,4.53
2017-10-20T01:48:46.488Z,3.70
2017-10-20T01:51:12.816Z,3.55
2017-10-20T01:53:39.149Z,3.20
2017-10-20T01:56:05.490Z,5.35
2017-10-20T01:58:31.829Z,5.00
2017-10-20T02:00:58.157Z,6.03
2017-10-20T02:03:24.481Z,5.57
2017-10-20T02:05:50.807Z,6.47
2017-10-20T02:08:17.142Z,5.70
2017-10-20T02:10:43.483Z,5.62
2017-10-20T02:13:09.815Z,5.60
2017-10-20T02:15:36.164Z,5.40
2017-10-20T02:18:02.499Z,3.37
2017-10-20T02:20:28.801Z,3.85
2017-10-20T02:22:55.138Z,5.65
2017-10-20T02:25:21.479Z,5.87
2017-10-20T02:27:47.827Z,5.70
2017-10-20T02:30:14.124Z,5.07
2017-10-20T02:32:40.473Z,3.85
2017-10-20T02:35:06.810Z,6.35
2017-10-20T02:37:33.117Z,3.75
2017-10-20T02:39:59.462Z,3.90
2017-10-20T02:42:25.788Z,5.20
2017-10-20T02:44:52.117Z,4.37
2017-10-20T02:47:18.473Z,3.17
2017-10-20T02:49:45.417Z,3.45
2017-10-20T02:52:11.747Z,4.45
2017-10-20T02:54:38.038Z,4.10
2017-10-20T02:57:04.459Z,4.00
2017-10-20T02:59:30.748Z,3.70
2017-10-20T03:01:57.085Z,4.90
2017-10-20T03:04:23.397Z,3.03
2017-10-20T03:06:49.742Z,4.32
2017-10-20T03:09:16.054Z,3.58
2017-10-20T03:11:42.307Z,4.05
2017-10-20T03:14:08.628Z,4.18
2017-10-20T03:16:34.952Z,3.22
2017-10-20T03:19:01.301Z,5.65
2017-10-20T03:21:27.613Z,5.55
2017-10-20T03:23:53.942Z,6.10
2017-10-20T03:26:20.295Z,4.10
2017-10-20T03:28:46.609Z,3.87
2017-10-20T03:31:12.969Z,3.70
2017-10-20T03:33:39.271Z,3.30
2017-10-20T03:36:05.628Z,3.50
2017-10-20T03:38:31.952Z,3.95
2017-10-20T03:40:58.282Z,3.78
2017-10-20T03:43:24.618Z,6.80
2017-10-20T03:45:50.939Z,4.90
2017-10-20T03:48:17.284Z,3.47
2017-10-20T03:50:43.613Z,1.90
2017-10-20T03:53:09.962Z,3.55
2017-10-20T03:55:36.263Z,2.80
2017-10-20T03:58:02.619Z,3.40
2017-10-20T04:00:28.944Z,4.72
2017-10-20T04:02:55.265Z,2.65
2017-10-20T04:05:21.609Z,4.45
2017-10-20T04:07:47.939Z,3.58
2017-10-20T04:10:14.253Z,4.32
2017-10-20T04:12:40.595Z,3.53
2017-10-20T04:15:06.948Z,2.90
2017-10-20T04:17:33.297Z,3.20
2017-10-20T04:19:59.600Z,4.00
2017-10-20T04:22:25.887Z,3.17
2017-10-20T04:24:52.142Z,3.60
2017-10-20T04:27:18.498Z,3.50
2017-10-20T04:29:44.831Z,4.47
2017-10-20T04:32:11.162Z,4.53
2017-10-20T04:34:37.491Z,3.50
2017-10-20T04:37:04.680Z,5.50
2017-10-20T04:39:30.986Z,2.97
2017-10-20T04:41:57.296Z,2.47
2017-10-20T04:44:23.654Z,5.55
2017-10-20T04:46:50.074Z,3.90
2017-10-20T04:49:16.408Z,3.10
2017-10-20T04:51:42.743Z,4.35
2017-10-20T04:54:09.061Z,3.30
2017-10-20T04:56:35.402Z,4.18
2017-10-20T04:59:01.731Z,3.00
2017-10-20T05:01:27.957Z,3.28
2017-10-20T05:03:54.307Z,3.53
2017-10-20T05:06:20.541Z,3.92
2017-10-20T05:08:46.803Z,2.67
2017-10-20T05:11:13.160Z,3.20
2017-10-20T05:13:39.420Z,3.50
2017-10-20T05:16:05.750Z,3.50
2017-10-20T05:18:32.087Z,3.72
2017-10-20T05:20:58.407Z,3.87
2017-10-20T05:23:25.407Z,4.12
2017-10-20T05:25:51.688Z,3.62
2017-10-20T05:28:18.019Z,4.35
2017-10-20T05:30:44.363Z,5.22
2017-10-20T05:33:10.758Z,3.95
2017-10-20T05:35:37.114Z,3.75
2017-10-20T05:38:03.481Z,5.28
2017-10-20T05:40:29.748Z,4.62
2017-10-20T05:43:02.901Z,4.78
2017-10-20T05:45:29.130Z,4.20
2017-10-20T05:47:55.426Z,5.15
2017-10-20T05:50:21.691Z,4.03
2017-10-20T05:52:47.948Z,3.80
2017-10-20T05:55:14.228Z,3.85
2017-10-20T05:57:40.577Z,5.07
2017-10-20T06:00:06.811Z,4.50
2017-10-20T06:02:33.054Z,4.10
2017-10-20T06:04:59.304Z,4.18
2017-10-20T06:07:25.586Z,4.32
2017-10-20T06:09:51.850Z,4.60
2017-10-20T06:12:18.117Z,4.55
2017-10-20T06:14:44.349Z,3.65
2017-10-20T06:17:10.579Z,3.67
2017-10-20T06:19:36.856Z,3.45
2017-10-20T06:22:03.100Z,3.80
2017-10-20T06:24:29.337Z,4.60
2017-10-20T06:26:55.566Z,4.95
2017-10-20T06:29:21.805Z,3.50
2017-10-20T06:31:48.074Z,5.43
2017-10-20T06:34:14.320Z,3.20
2017-10-20T06:36:40.544Z,4.30
2017-10-20T06:39:06.800Z,4.78
2017-10-20T06:41:33.054Z,4.80
2017-10-20T06:43:59.339Z,5.00
2017-10-20T06:46:25.590Z,4.18
2017-10-20T06:48:51.830Z,4.70
2017-10-20T06:51:18.094Z,6.15
2017-10-20T06:53:44.360Z,5.25
2017-10-20T06:56:10.646Z,5.12
2017-10-20T06:58:36.896Z,5.12
2017-10-20T07:01:03.130Z,4.80
2017-10-20T07:03:29.391Z,4.53
2017-10-20T07:05:55.636Z,4.82
2017-10-20T07:08:21.950Z,5.68
2017-10-20T07:10:48.197Z,4.45
2017-10-20T07:13:14.458Z,5.30
2017-10-20T07:15:40.712Z,4.50
2017-10-20T07:18:06.983Z,4.18
2017-10-20T07:20:33.285Z,4.43
2017-10-20T07:22:59.544Z,4.60
2017-10-20T07:25:25.793Z,4.67
2017-10-20T07:27:52.055Z,4.77
2017-10-20T07:30:18.312Z,4.70
2017-10-20T07:32:44.619Z,4.47
2017-10-20T07:35:10.986Z,4.70
2017-10-20T07:37:37.234Z,5.80
2017-10-20T07:40:03.491Z,6.80
2017-10-20T07:42:29.770Z,10.73
2017-10-20T07:44:56.060Z,9.47
2017-10-20T07:47:22.301Z,10.33
2017-10-20T07:49:48.552Z,7.27
2017-10-20T07:52:14.780Z,6.97
2017-10-20T07:54:41.071Z,6.30
2017-10-20T07:57:07.344Z,7.30
2017-10-20T07:59:33.606Z,7.97
2017-10-20T08:01:59.854Z,7.97
2017-10-20T08:04:26.092Z,10.27
2017-10-20T08:06:53.131Z,10.27
2017-10-20T08:09:19.429Z,11.33
2017-10-20T08:11:45.666Z,11.73
2017-10-20T08:14:11.914Z,12.00
2017-10-20T08:16:38.182Z,12.70
2017-10-20T08:21:27.446Z,14.63
2017-10-20T08:23:53.707Z,15.37
2017-10-20T08:26:19.960Z,13.20
2017-10-20T08:28:46.214Z,12.77
2017-10-20T08:31:12.485Z,11.10
2017-10-20T08:33:38.753Z,12.00
2017-10-20T08:36:04.991Z,8.63
2017-10-20T08:38:31.236Z,10.03
2017-10-20T08:40:57.483Z,9.67
2017-10-20T08:43:23.739Z,8.10
2017-10-20T08:45:50.022Z,9.50
2017-10-20T08:48:16.322Z,9.23
2017-10-20T08:50:42.605Z,8.67
2017-10-20T08:53:08.894Z,8.40
2017-10-20T08:55:35.195Z,7.47
2017-10-20T08:58:01.554Z,7.07
2017-10-20T09:00:27.858Z,5.43
2017-10-20T09:02:54.188Z,5.67
2017-10-20T09:05:20.517Z,5.00
2017-10-20T09:07:46.850Z,4.93
2017-10-20T09:10:13.223Z,5.50
2017-10-20T09:12:39.508Z,4.27
2017-10-20T09:15:05.822Z,4.60
2017-10-20T09:17:32.126Z,5.00
2017-10-20T09:19:58.603Z,4.67
2017-10-20T09:22:24.986Z,4.53
2017-10-20T09:24:51.354Z,4.53
2017-10-20T09:27:17.680Z,4.13
2017-10-20T09:29:43.998Z,4.40
2017-10-20T09:32:10.281Z,4.40
2017-10-20T09:34:36.596Z,4.10
2017-10-20T09:37:02.908Z,3.17
2017-10-20T09:39:29.211Z,3.20
2017-10-20T09:41:55.525Z,3.33
2017-10-20T09:44:21.821Z,3.63
2017-10-20T09:46:48.142Z,3.03
2017-10-20T09:49:14.531Z,2.53
2017-10-20T09:51:40.875Z,4.40
2017-10-20T09:54:07.185Z,3.80
2017-10-20T09:56:33.465Z,3.50
2017-10-20T09:58:59.797Z,4.30
2017-10-20T10:01:26.082Z,3.43
2017-10-20T10:03:52.355Z,3.40
2017-10-20T10:06:18.684Z,4.50
2017-10-20T10:08:44.998Z,3.67
2017-10-20T10:11:11.355Z,3.90
2017-10-20T10:13:37.656Z,3.43
2017-10-20T10:16:04.025Z,3.20
2017-10-20T10:18:30.362Z,3.07
2017-10-20T10:20:56.715Z,2.77
2017-10-20T10:23:23.172Z,3.37
2017-10-20T10:25:49.462Z,4.00
2017-10-20T10:28:15.789Z,2.87
2017-10-20T10:30:42.089Z,3.33
2017-10-20T10:33:08.402Z,3.03
2017-10-20T10:35:34.744Z,3.27
2017-10-20T10:38:01.036Z,3.30
2017-10-20T10:40:27.333Z,2.83
2017-10-20T10:42:53.646Z,3.30
2017-10-20T10:45:19.930Z,2.53
2017-10-20T10:47:46.322Z,2.43
2017-10-20T10:50:12.636Z,3.37
2017-10-20T10:52:38.924Z,3.00
2017-10-20T10:55:05.208Z,3.20
2017-10-20T10:57:31.517Z,3.37
2017-10-20T10:59:57.854Z,3.53
2017-10-20T11:02:24.288Z,2.73
2017-10-20T11:04:50.606Z,3.30
2017-10-20T11:07:16.913Z,3.50
2017-10-20T11:09:43.199Z,3.00
2017-10-20T11:12:09.498Z,3.70
2017-10-20T11:14:35.887Z,3.70
2017-10-20T11:17:02.243Z,3.43
2017-10-20T11:19:28.549Z,3.57
2017-10-20T11:21:54.900Z,3.37
2017-10-20T11:24:21.446Z,2.33
2017-10-20T11:26:47.826Z,2.33
2017-10-20T11:29:14.129Z,2.77
2017-10-20T11:31:40.432Z,3.00
2017-10-20T11:34:06.830Z,2.57
2017-10-20T11:36:33.116Z,3.07
2017-10-20T11:38:59.538Z,3.07
2017-10-20T11:41:25.848Z,3.60
2017-10-20T11:43:52.151Z,2.90
2017-10-20T11:46:18.452Z,2.43
2017-10-20T11:48:44.751Z,3.00
2017-10-20T11:53:27.078Z,2.60
2017-10-20T11:55:53.353Z,3.03
2017-10-20T11:58:19.687Z,2.97
2017-10-20T12:00:45.981Z,2.37
2017-10-20T12:03:12.265Z,2.57
2017-10-20T12:05:38.584Z,3.00
2017-10-20T12:08:04.874Z,3.23
2017-10-20T12:10:31.308Z,2.57
2017-10-20T12:12:57.600Z,2.73
2017-10-20T12:15:23.920Z,2.53
2017-10-20T12:17:50.228Z,3.10
2017-10-20T12:20:16.505Z,2.90
2017-10-20T12:22:42.833Z,2.27
2017-10-20T12:25:09.158Z,2.17
2017-10-20T12:27:35.493Z,2.60
2017-10-20T12:30:01.824Z,2.23
2017-10-20T12:32:28.114Z,2.67
2017-10-20T12:34:54.414Z,3.47
2017-10-20T12:37:20.762Z,2.40
2017-10-20T12:39:47.096Z,2.40
2017-10-20T12:42:13.403Z,2.40
2017-10-20T12:44:39.733Z,2.60
2017-10-20T12:47:06.063Z,2.43
2017-10-20T12:49:32.400Z,2.93
2017-10-20T12:51:58.713Z,3.07
2017-10-20T12:54:25.043Z,2.23
2017-10-20T12:56:51.350Z,2.80
2017-10-20T12:59:17.638Z,2.47
2017-10-20T13:01:43.921Z,3.60
2017-10-20T13:04:10.184Z,2.73
2017-10-20T13:06:36.431Z,3.17
2017-10-20T13:09:02.702Z,2.70
2017-10-20T13:11:28.949Z,3.20
2017-10-20T13:13:55.172Z,2.90
2017-10-20T13:16:21.503Z,2.93
2017-10-20T13:18:47.740Z,2.50
2017-10-20T13:21:14.019Z,2.83
2017-10-20T13:23:40.246Z,2.67
2017-10-20T13:26:06.493Z,2.60
2017-10-20T13:28:32.719Z,2.60
2017-10-20T13:30:59.036Z,2.87
2017-10-20T13:33:25.329Z,2.77
2017-10-20T13:35:51.609Z,2.47
2017-10-20T13:38:17.982Z,3.20
2017-10-20T13:40:44.258Z,2.87
2017-10-20T13:43:10.520Z,3.33
2017-10-20T13:45:36.785Z,2.60
2017-10-20T13:48:03.127Z,2.60
2017-10-20T13:50:29.386Z,2.47
2017-10-20T13:52:55.615Z,3.30
2017-10-20T13:55:21.847Z,3.30
2017-10-20T13:57:48.163Z,3.17
2017-10-20T14:00:14.401Z,3.90
2017-10-20T14:02:40.642Z,3.50
2017-10-20T14:05:06.966Z,3.53
2017-10-20T14:07:33.226Z,3.67
2017-10-20T14:09:59.483Z,3.47
2017-10-20T14:12:25.847Z,4.43
2017-10-20T14:14:52.112Z,4.40
2017-10-20T14:17:18.386Z,4.20
2017-10-20T14:19:44.625Z,4.33
2017-10-20T14:22:10.874Z,3.73
2017-10-20T14:24:37.109Z,4.27
2017-10-20T14:27:03.354Z,4.17
2017-10-20T14:29:29.580Z,3.90
2017-10-20T14:31:55.816Z,4.23
2017-10-20T14:34:22.099Z,3.30
2017-10-20T14:36:48.343Z,4.17
2017-10-20T14:39:14.576Z,3.43
2017-10-20T14:41:40.841Z,4.07
2017-10-20T14:44:07.062Z,4.50
2017-10-20T14:46:33.362Z,3.60
2017-10-20T14:48:59.620Z,4.00
2017-10-20T14:51:25.918Z,4.00
2017-10-20T14:53:52.180Z,3.70
2017-10-20T14:56:18.406Z,3.00
2017-10-20T14:58:44.698Z,3.50
2017-10-20T15:01:10.956Z,3.77
2017-10-20T15:03:37.299Z,4.30
2017-10-20T15:06:04.205Z,2.23
2017-10-20T15:08:30.466Z,3.53
2017-10-20T15:10:56.791Z,5.27
2017-10-20T15:13:23.193Z,4.27
2017-10-20T15:15:49.481Z,4.10
2017-10-20T15:18:15.728Z,4.77
2017-10-20T15:20:42.104Z,5.00
2017-10-20T15:23:08.493Z,5.20
2017-10-20T15:25:34.791Z,5.23
2017-10-20T15:28:01.158Z,4.03
2017-10-20T15:30:27.461Z,4.67
2017-10-20T15:32:53.820Z,4.30
2017-10-20T15:35:20.156Z,5.13
2017-10-20T15:37:46.577Z,4.73
2017-10-20T15:40:12.911Z,5.37
2017-10-20T15:42:39.220Z,5.13
2017-10-20T15:45:05.490Z,5.07
2017-10-20T15:47:31.794Z,5.55
2017-10-20T15:49:58.090Z,5.35
2017-10-20T15:52:24.373Z,5.72
2017-10-20T15:54:50.697Z,5.32
2017-10-20T15:57:16.948Z,4.60
2017-10-20T15:59:43.211Z,7.00
2017-10-20T16:02:09.500Z,5.20
2017-10-20T16:04:35.756Z,6.65
2017-10-20T16:07:02.032Z,5.28
2017-10-20T16:09:28.309Z,5.20
2017-10-20T16:11:54.556Z,5.75
2017-10-20T16:14:20.882Z,4.68
2017-10-20T16:16:47.128Z,5.53
2017-10-20T16:19:13.385Z,5.10
2017-10-20T16:21:39.630Z,5.95
2017-10-20T16:24:05.873Z,15.20
2017-10-20T16:26:32.157Z,5.30
2017-10-20T16:28:58.445Z,5.50
2017-10-20T16:31:24.702Z,6.30
2017-10-20T16:33:50.942Z,5.37
2017-10-20T16:36:17.240Z,5.12
2017-10-20T16:38:43.568Z,6.15
2017-10-20T16:41:09.926Z,5.68
2017-10-20T16:43:36.174Z,6.72
2017-10-20T16:46:02.437Z,7.10
2017-10-20T16:48:28.721Z,9.80
2017-10-20T16:50:55.009Z,6.65
2017-10-20T16:53:21.273Z,9.05
2017-10-20T16:55:47.554Z,8.73
2017-10-20T16:58:13.845Z,7.47
2017-10-20T17:00:40.110Z,7.03
2017-10-20T17:03:06.437Z,7.28
2017-10-20T17:05:32.692Z,6.37
2017-10-20T17:07:59.021Z,6.40
2017-10-20T17:10:25.284Z,4.62
2017-10-20T17:12:51.546Z,5.72
2017-10-20T17:15:17.870Z,8.27
2017-10-20T17:17:44.227Z,7.03
2017-10-20T17:20:10.475Z,7.32
2017-10-20T17:22:36.733Z,9.52
2017-10-20T17:25:03.093Z,6.45
2017-10-20T17:27:29.398Z,7.25
2017-10-20T17:29:55.640Z,8.55
2017-10-20T17:32:21.905Z,6.87
2017-10-20T17:34:48.200Z,8.65
2017-10-20T17:37:14.501Z,7.68
2017-10-20T17:39:40.756Z,7.97
2017-10-20T17:42:07.046Z,6.97
2017-10-20T17:44:33.326Z,7.90
2017-10-20T17:46:59.575Z,6.32
2017-10-20T17:49:26.772Z,6.10
2017-10-20T17:51:53.092Z,7.10
2017-10-20T17:54:19.351Z,7.90
2017-10-20T17:56:45.645Z,7.97
2017-10-20T17:59:11.900Z,7.07
2017-10-20T18:01:38.187Z,6.30
2017-10-20T18:04:04.444Z,7.90
2017-10-20T18:06:30.743Z,7.25
2017-10-20T18:08:57.011Z,7.93
2017-10-20T18:11:23.267Z,8.30
2017-10-20T18:13:49.566Z,8.02
2017-10-20T18:16:15.814Z,7.82
2017-10-20T18:18:42.096Z,9.57
2017-10-20T18:21:08.431Z,8.38
2017-10-20T18:23:34.749Z,8.20
2017-10-20T18:26:01.048Z,8.55
2017-10-20T18:28:27.362Z,7.53
2017-10-20T18:30:53.608Z,7.85
2017-10-20T18:33:19.862Z,7.20
2017-10-20T18:35:46.105Z,8.25
2017-10-20T18:38:12.413Z,8.23
2017-10-20T18:40:38.709Z,7.50
2017-10-20T18:43:04.964Z,8.40
2017-10-20T18:45:31.281Z,8.15
2017-10-20T18:47:58.372Z,7.68
2017-10-20T18:50:24.773Z,7.30
2017-10-20T18:52:51.058Z,6.60
2017-10-20T18:55:17.305Z,6.97
2017-10-20T18:57:43.558Z,8.20
2017-10-20T19:00:09.827Z,6.47
2017-10-20T19:02:36.139Z,7.15
2017-10-20T19:05:02.412Z,7.55
2017-10-20T19:07:28.667Z,6.57
2017-10-20T19:09:54.960Z,7.03
2017-10-20T19:12:21.239Z,7.47
2017-10-20T19:14:47.554Z,7.10
2017-10-20T19:17:13.821Z,6.35
2017-10-20T19:19:40.105Z,7.07
2017-10-20T19:22:06.327Z,9.05
2017-10-20T19:24:32.558Z,7.00
2017-10-20T19:26:58.844Z,7.72
2017-10-20T19:29:25.129Z,8.43
2017-10-20T19:31:51.402Z,9.77
2017-10-20T19:34:17.680Z,7.43
2017-10-20T19:36:47.836Z,6.53
2017-10-20T19:39:14.162Z,7.35
2017-10-20T19:41:40.429Z,9.02
2017-10-20T19:44:06.666Z,8.38
2017-10-20T19:46:32.928Z,8.13
2017-10-20T19:48:59.187Z,9.57
2017-10-20T19:51:25.474Z,6.30
2017-10-20T19:53:52.314Z,7.25
2017-10-20T19:56:18.585Z,9.63
2017-10-20T19:58:45.794Z,7.50
2017-10-20T20:01:12.051Z,7.75
2017-10-20T20:03:38.297Z,6.93
2017-10-20T20:06:04.588Z,8.20
2017-10-20T20:08:30.827Z,7.18
2017-10-20T20:10:57.251Z,7.72
2017-10-20T20:13:23.543Z,7.55
2017-10-20T20:15:49.804Z,7.25
2017-10-20T20:18:16.044Z,8.57
2017-10-20T20:20:42.292Z,8.10
2017-10-20T20:23:08.619Z,6.97
2017-10-20T20:25:34.864Z,8.52
2017-10-20T20:28:01.171Z,6.87
2017-10-20T20:30:27.440Z,10.15
2017-10-20T20:32:53.689Z,11.00
2017-10-20T20:35:20.018Z,8.85
2017-10-20T20:37:46.262Z,9.55
2017-10-20T20:40:12.500Z,8.88
2017-10-20T20:42:38.748Z,7.72
2017-10-20T20:45:05.026Z,10.93
2017-10-20T20:47:31.338Z,10.18
2017-10-20T20:49:57.583Z,7.97
2017-10-20T20:52:24.460Z,8.35
2017-10-20T20:54:50.737Z,9.13
2017-10-20T20:57:16.951Z,9.38
2017-10-20T20:59:43.235Z,8.02
2017-10-20T21:02:09.484Z,7.32
2017-10-20T21:04:35.748Z,8.70
2017-10-20T21:07:02.039Z,9.60
2017-10-20T21:09:29.290Z,8.38
2017-10-20T21:11:55.534Z,9.15
2017-10-20T21:14:21.787Z,10.07
2017-10-20T21:16:48.042Z,9.15
2017-10-20T21:19:14.311Z,7.57
2017-10-20T21:21:40.570Z,7.87
2017-10-20T21:24:07.692Z,7.00
2017-10-20T21:26:34.010Z,10.32
2017-10-20T21:29:00.250Z,8.82
2017-10-20T21:31:26.521Z,8.80
2017-10-20T21:33:52.746Z,8.75
2017-10-20T21:36:18.989Z,8.60
2017-10-20T21:38:45.228Z,9.15
2017-10-20T21:41:11.505Z,6.87
2017-10-20T21:43:37.771Z,6.62
2017-10-20T21:46:04.002Z,7.72
2017-10-20T21:48:30.228Z,8.30
2017-10-20T21:50:56.480Z,11.00
2017-10-20T21:53:22.729Z,6.78
2017-10-20T21:55:48.999Z,9.13
2017-10-20T21:58:15.222Z,6.53
2017-10-20T22:00:41.478Z,7.62
2017-10-20T22:03:07.691Z,8.52
2017-10-20T22:05:33.942Z,7.15
2017-10-20T22:08:00.220Z,9.05
2017-10-20T22:10:26.433Z,8.43
2017-10-20T22:12:52.657Z,8.70
2017-10-20T22:15:18.891Z,8.55
2017-10-20T22:17:45.135Z,7.37
2017-10-20T22:20:11.402Z,6.68
2017-10-20T22:22:37.649Z,8.77
2017-10-20T22:25:03.885Z,8.10
2017-10-20T22:27:30.123Z,7.50
2017-10-20T22:29:56.407Z,7.95
2017-10-20T22:32:22.666Z,7.57
2017-10-20T22:34:48.907Z,8.57
2017-10-20T22:37:15.154Z,7.75
2017-10-20T22:39:41.392Z,6.25
2017-10-20T22:42:07.622Z,7.30
2017-10-20T22:44:33.878Z,8.60
2017-10-20T22:47:00.124Z,7.55
2017-10-20T22:49:26.359Z,10.13
2017-10-20T22:51:52.596Z,7.28
2017-10-20T22:54:18.841Z,7.00
2017-10-20T22:56:45.117Z,7.37
2017-10-20T22:59:11.336Z,8.23
2017-10-20T23:01:37.555Z,7.15
2017-10-20T23:04:03.804Z,8.90
2017-10-20T23:06:30.060Z,9.13
2017-10-20T23:08:56.421Z,6.93
2017-10-20T23:11:22.654Z,7.05
2017-10-20T23:13:48.875Z,8.07
2017-10-20T23:16:15.096Z,8.30
2017-10-20T23:18:41.320Z,8.52
2017-10-20T23:21:07.591Z,9.60
2017-10-20T23:23:33.829Z,7.37
2017-10-20T23:26:00.072Z,5.90
2017-10-20T23:28:26.398Z,7.25
2017-10-20T23:30:52.634Z,8.88
2017-10-20T23:33:18.959Z,11.52
2017-10-20T23:35:45.292Z,9.00
2017-10-20T23:38:11.623Z,8.52
2017-10-20T23:40:37.952Z,7.65
2017-10-20T23:43:04.270Z,7.20
2017-10-20T23:45:30.615Z,8.75
2017-10-20T23:47:56.930Z,7.80
2017-10-20T23:50:23.179Z,6.80
2017-10-20T23:52:49.522Z,6.00
2017-10-20T23:55:15.848Z,5.70
2017-10-20T23:57:42.184Z,6.30
